createdAt,value
2018-07-24T00:00:01.318Z,17.92
2018-07-24T00:02:29.077Z,17.98
2018-07-24T00:04:56.902Z,18.05
2018-07-24T00:07:25.323Z,18.22
2018-07-24T00:09:53.233Z,18.30
2018-07-24T00:12:20.969Z,18.15
2018-07-24T00:14:48.639Z,17.95
2018-07-24T00:17:16.340Z,18.19
2018-07-24T00:19:44.066Z,18.19
2018-07-24T00:22:11.761Z,18.02
2018-07-24T00:24:39.517Z,18.05
2018-07-24T00:27:08.715Z,18.27
2018-07-24T00:29:36.739Z,18.21
2018-07-24T00:32:05.044Z,18.19
2018-07-24T00:34:33.210Z,18.21
2018-07-24T00:37:01.712Z,18.25
2018-07-24T00:39:29.501Z,18.22
2018-07-24T00:41:57.220Z,18.16
2018-07-24T00:44:24.974Z,18.20
2018-07-24T00:46:52.641Z,18.15
2018-07-24T00:49:20.358Z,18.08
2018-07-24T00:51:48.049Z,17.95
2018-07-24T00:54:15.767Z,17.96
2018-07-24T00:56:43.441Z,17.89
2018-07-24T00:59:11.131Z,17.92
2018-07-24T01:01:38.838Z,17.81
2018-07-24T01:04:06.606Z,17.67
2018-07-24T01:06:34.317Z,17.64
2018-07-24T01:09:02.090Z,17.68
2018-07-24T01:11:29.781Z,17.66
2018-07-24T01:13:57.537Z,17.69
2018-07-24T01:16:25.271Z,17.62
2018-07-24T01:18:52.946Z,17.60
2018-07-24T01:21:20.655Z,17.60
2018-07-24T01:23:48.376Z,17.35
2018-07-24T01:26:16.054Z,17.35
2018-07-24T01:28:43.774Z,17.42
2018-07-24T01:31:11.438Z,17.52
2018-07-24T01:33:39.376Z,17.38
2018-07-24T01:36:07.075Z,17.44
2018-07-24T01:38:34.730Z,17.26
2018-07-24T01:41:02.390Z,17.32
2018-07-24T01:43:30.108Z,17.33
2018-07-24T01:45:57.841Z,17.24
2018-07-24T01:48:25.555Z,17.17
2018-07-24T01:50:53.942Z,17.22
2018-07-24T01:53:21.871Z,17.08
2018-07-24T01:55:49.543Z,17.04
2018-07-24T01:58:17.250Z,16.99
2018-07-24T02:00:45.026Z,17.17
2018-07-24T02:03:12.780Z,17.16
2018-07-24T02:05:40.472Z,17.22
2018-07-24T02:08:08.199Z,17.28
2018-07-24T02:10:35.882Z,17.38
2018-07-24T02:13:03.570Z,17.16
2018-07-24T02:15:31.295Z,17.22
2018-07-24T02:17:59.014Z,17.02
2018-07-24T02:20:26.744Z,17.14
2018-07-24T02:22:54.438Z,17.24
2018-07-24T02:25:22.240Z,17.23
2018-07-24T02:27:49.947Z,17.20
2018-07-24T02:30:17.774Z,17.19
2018-07-24T02:32:45.509Z,17.16
2018-07-24T02:35:13.258Z,17.02
2018-07-24T02:37:40.947Z,17.02
2018-07-24T02:40:08.806Z,16.97
2018-07-24T02:42:36.541Z,17.11
2018-07-24T02:45:04.806Z,17.11
2018-07-24T02:47:32.535Z,17.08
2018-07-24T02:50:00.226Z,16.93
2018-07-24T02:52:28.230Z,16.82
2018-07-24T02:54:55.940Z,16.80
2018-07-24T02:57:23.694Z,16.74
2018-07-24T02:59:51.375Z,16.66
2018-07-24T03:02:19.174Z,16.69
2018-07-24T03:04:46.866Z,16.61
2018-07-24T03:07:14.561Z,16.43
2018-07-24T03:09:42.540Z,16.42
2018-07-24T03:12:10.190Z,16.35
2018-07-24T03:14:37.846Z,16.30
2018-07-24T03:17:05.544Z,16.34
2018-07-24T03:19:33.239Z,16.27
2018-07-24T03:22:00.946Z,16.31
2018-07-24T03:24:28.626Z,16.42
2018-07-24T03:26:56.382Z,16.31
2018-07-24T03:29:24.073Z,16.23
2018-07-24T03:31:51.766Z,16.22
2018-07-24T03:34:19.458Z,16.14
2018-07-24T03:36:47.135Z,16.10
2018-07-24T03:39:14.794Z,16.03
2018-07-24T03:41:42.527Z,16.04
2018-07-24T03:44:10.588Z,15.94
2018-07-24T03:46:38.286Z,16.01
2018-07-24T03:49:05.975Z,15.99
2018-07-24T03:51:33.815Z,15.94
2018-07-24T03:54:01.591Z,15.89
2018-07-24T03:56:29.373Z,15.86
2018-07-24T03:58:57.203Z,15.84
2018-07-24T04:01:24.874Z,15.81
2018-07-24T04:03:52.569Z,15.89
2018-07-24T04:06:20.307Z,15.90
2018-07-24T04:08:48.009Z,16.06
2018-07-24T04:11:15.805Z,16.09
2018-07-24T04:13:43.586Z,16.10
2018-07-24T04:16:11.291Z,16.02
2018-07-24T04:18:44.602Z,15.96
2018-07-24T04:21:12.390Z,15.88
2018-07-24T04:23:40.191Z,15.87
2018-07-24T04:26:08.583Z,15.86
2018-07-24T04:28:36.360Z,15.92
2018-07-24T04:31:04.182Z,15.88
2018-07-24T04:33:31.904Z,16.08
2018-07-24T04:35:59.882Z,16.27
2018-07-24T04:38:27.634Z,16.51
2018-07-24T04:40:55.335Z,16.42
2018-07-24T04:43:23.783Z,16.52
2018-07-24T04:45:51.504Z,16.91
2018-07-24T04:48:19.194Z,17.02
2018-07-24T04:50:46.894Z,17.14
2018-07-24T04:53:14.694Z,16.92
2018-07-24T04:55:42.378Z,17.25
2018-07-24T04:58:10.274Z,17.37
2018-07-24T05:00:37.931Z,17.51
2018-07-24T05:03:05.731Z,17.69
2018-07-24T05:05:33.762Z,17.73
2018-07-24T05:08:01.458Z,17.87
2018-07-24T05:10:29.577Z,18.16
2018-07-24T05:12:57.658Z,18.05
2018-07-24T05:15:25.351Z,18.20
2018-07-24T05:17:53.445Z,18.27
2018-07-24T05:20:21.170Z,18.55
2018-07-24T05:22:48.909Z,18.96
2018-07-24T05:25:16.606Z,19.07
2018-07-24T05:27:44.306Z,19.22
2018-07-24T05:30:12.072Z,19.22
2018-07-24T05:32:40.023Z,19.47
2018-07-24T05:35:08.030Z,19.30
2018-07-24T05:37:35.746Z,19.80
2018-07-24T05:40:03.538Z,19.87
2018-07-24T05:42:31.207Z,20.13
2018-07-24T05:44:58.955Z,20.26
2018-07-24T05:47:26.681Z,20.50
2018-07-24T05:49:54.421Z,20.97
2018-07-24T05:52:22.094Z,21.04
2018-07-24T05:54:49.894Z,21.03
2018-07-24T05:57:17.630Z,20.89
2018-07-24T05:59:45.383Z,21.32
2018-07-24T06:02:13.143Z,21.25
2018-07-24T06:04:40.893Z,21.45
2018-07-24T06:07:08.614Z,21.83
2018-07-24T06:09:36.278Z,22.05
2018-07-24T06:12:04.022Z,21.99
2018-07-24T06:14:31.815Z,22.40
2018-07-24T06:17:00.133Z,22.74
2018-07-24T06:19:27.835Z,23.05
2018-07-24T06:21:55.703Z,23.32
2018-07-24T06:24:23.358Z,23.43
2018-07-24T06:26:51.119Z,23.66
2018-07-24T06:29:18.922Z,23.88
2018-07-24T06:31:46.598Z,24.05
2018-07-24T06:34:14.659Z,24.08
2018-07-24T06:36:42.393Z,24.25
2018-07-24T06:39:12.418Z,24.65
2018-07-24T06:41:40.733Z,24.73
2018-07-24T06:44:09.056Z,24.84
2018-07-24T06:46:37.000Z,24.81
2018-07-24T06:49:04.790Z,25.13
2018-07-24T06:51:32.524Z,25.40
2018-07-24T06:54:00.345Z,25.31
2018-07-24T06:56:29.027Z,25.60
2018-07-24T06:58:56.734Z,26.12
2018-07-24T07:01:24.423Z,26.26
2018-07-24T07:03:52.161Z,26.60
2018-07-24T07:06:19.905Z,26.82
2018-07-24T07:08:47.759Z,27.20
2018-07-24T07:11:15.525Z,27.32
2018-07-24T07:13:43.362Z,27.43
2018-07-24T07:16:11.152Z,27.76
2018-07-24T07:18:38.826Z,27.85
2018-07-24T07:21:06.570Z,28.16
2018-07-24T07:23:34.307Z,28.34
2018-07-24T07:26:02.061Z,28.82
2018-07-24T07:28:29.874Z,28.59
2018-07-24T07:30:57.594Z,28.75
2018-07-24T07:33:25.602Z,29.12
2018-07-24T07:35:53.414Z,29.42
2018-07-24T07:38:21.146Z,29.86
2018-07-24T07:40:48.870Z,30.03
2018-07-24T07:43:16.667Z,30.16
2018-07-24T07:45:44.361Z,30.16
2018-07-24T07:48:12.501Z,30.19
2018-07-24T07:50:40.202Z,30.63
2018-07-24T07:53:07.946Z,30.69
2018-07-24T07:55:36.160Z,30.11
2018-07-24T07:58:03.926Z,30.83
2018-07-24T08:00:31.718Z,31.10
2018-07-24T08:02:59.438Z,31.46
2018-07-24T08:05:27.134Z,31.52
2018-07-24T08:07:54.891Z,31.81
2018-07-24T08:10:22.643Z,32.03
2018-07-24T08:12:50.393Z,32.28
2018-07-24T08:15:18.096Z,32.41
2018-07-24T08:17:45.825Z,32.69
2018-07-24T08:20:13.481Z,32.82
2018-07-24T08:22:41.213Z,32.91
2018-07-24T08:25:08.938Z,32.84
2018-07-24T08:27:37.636Z,33.07
2018-07-24T08:30:05.382Z,33.08
2018-07-24T08:32:33.105Z,33.26
2018-07-24T08:35:00.788Z,33.84
2018-07-24T08:37:28.747Z,33.87
2018-07-24T08:39:56.599Z,33.49
2018-07-24T08:42:24.296Z,33.87
2018-07-24T08:44:52.104Z,34.29
2018-07-24T08:47:19.869Z,34.12
2018-07-24T08:49:47.637Z,34.54
2018-07-24T08:52:15.329Z,33.71
2018-07-24T08:54:43.329Z,34.15
2018-07-24T08:57:10.957Z,34.36
2018-07-24T08:59:38.890Z,34.29
2018-07-24T09:02:06.674Z,33.75
2018-07-24T09:04:34.343Z,34.12
2018-07-24T09:07:02.102Z,33.99
2018-07-24T09:09:29.763Z,33.48
2018-07-24T09:11:57.483Z,33.39
2018-07-24T09:14:25.219Z,32.45
2018-07-24T09:16:52.878Z,32.81
2018-07-24T09:19:20.640Z,33.33
2018-07-24T09:21:48.394Z,34.33
2018-07-24T09:24:16.135Z,34.18
2018-07-24T09:26:43.835Z,34.32
2018-07-24T09:29:11.566Z,34.16
2018-07-24T09:31:39.262Z,34.05
2018-07-24T09:34:06.984Z,34.87
2018-07-24T09:36:34.630Z,34.21
2018-07-24T09:39:02.587Z,33.61
2018-07-24T09:41:30.326Z,34.30
2018-07-24T09:43:58.126Z,34.11
2018-07-24T09:46:25.812Z,34.33
2018-07-24T09:48:53.527Z,34.73
2018-07-24T09:51:21.285Z,33.51
2018-07-24T09:53:49.052Z,33.07
2018-07-24T09:56:17.102Z,33.25
2018-07-24T09:58:44.782Z,33.13
2018-07-24T10:01:17.986Z,33.52
2018-07-24T10:03:45.683Z,33.42
2018-07-24T10:06:13.431Z,33.40
2018-07-24T10:08:41.135Z,32.86
2018-07-24T10:11:08.836Z,33.46
2018-07-24T10:13:36.515Z,33.82
2018-07-24T10:16:04.300Z,33.59
2018-07-24T10:18:32.035Z,33.56
2018-07-24T10:20:59.998Z,32.57
2018-07-24T10:23:27.719Z,32.52
2018-07-24T10:25:56.283Z,31.90
2018-07-24T10:28:23.971Z,31.24
2018-07-24T10:30:51.681Z,31.26
2018-07-24T10:33:20.309Z,30.77
2018-07-24T10:35:48.040Z,30.61
2018-07-24T10:38:15.886Z,30.98
2018-07-24T10:40:43.591Z,31.31
2018-07-24T10:43:11.359Z,31.87
2018-07-24T10:45:39.009Z,31.78
2018-07-24T10:48:06.752Z,31.69
2018-07-24T10:50:34.571Z,31.90
2018-07-24T10:53:03.251Z,32.03
2018-07-24T10:55:30.976Z,32.64
2018-07-24T10:57:58.728Z,32.86
2018-07-24T11:00:26.427Z,33.28
2018-07-24T11:02:54.238Z,33.11
2018-07-24T11:05:22.039Z,32.79
2018-07-24T11:07:49.741Z,33.03
2018-07-24T11:10:17.436Z,32.93
2018-07-24T11:12:45.137Z,32.80
2018-07-24T11:15:12.854Z,32.05
2018-07-24T11:17:40.534Z,31.70
2018-07-24T11:20:08.303Z,31.49
2018-07-24T11:22:36.177Z,31.52
2018-07-24T11:25:03.851Z,31.62
2018-07-24T11:27:31.653Z,31.30
2018-07-24T11:29:59.366Z,31.69
2018-07-24T11:32:27.303Z,31.74
2018-07-24T11:34:55.081Z,31.97
2018-07-24T11:37:22.814Z,31.61
2018-07-24T11:39:50.526Z,31.55
2018-07-24T11:42:18.276Z,31.80
2018-07-24T11:44:46.032Z,31.54
2018-07-24T11:47:13.706Z,31.64
2018-07-24T11:49:41.731Z,31.71
2018-07-24T11:52:09.479Z,31.77
2018-07-24T11:54:37.234Z,31.77
2018-07-24T11:57:04.990Z,31.83
2018-07-24T11:59:32.684Z,31.74
2018-07-24T12:02:00.497Z,31.57
2018-07-24T12:04:28.182Z,31.37
2018-07-24T12:06:55.935Z,31.08
2018-07-24T12:09:23.724Z,30.93
2018-07-24T12:11:51.543Z,30.66
2018-07-24T12:14:19.284Z,30.90
2018-07-24T12:16:46.999Z,30.92
2018-07-24T12:19:14.814Z,30.68
2018-07-24T12:21:42.514Z,30.70
2018-07-24T12:24:11.176Z,30.73
2018-07-24T12:26:38.912Z,30.45
2018-07-24T12:29:06.692Z,30.49
2018-07-24T12:31:34.423Z,30.47
2018-07-24T12:34:02.220Z,30.44
2018-07-24T12:36:29.943Z,30.55
2018-07-24T12:38:57.686Z,30.38
2018-07-24T12:41:25.436Z,30.40
2018-07-24T12:43:53.142Z,30.34
2018-07-24T12:46:20.921Z,30.22
2018-07-24T12:48:48.586Z,30.36
2018-07-24T12:51:16.336Z,30.44
2018-07-24T12:53:44.070Z,30.34
2018-07-24T12:56:11.853Z,30.08
2018-07-24T12:58:39.569Z,30.13
2018-07-24T13:01:07.275Z,30.22
2018-07-24T13:03:35.267Z,30.18
2018-07-24T13:06:03.046Z,29.83
2018-07-24T13:08:30.734Z,29.76
2018-07-24T13:10:58.543Z,29.74
2018-07-24T13:13:26.230Z,29.88
2018-07-24T13:15:53.929Z,29.95
2018-07-24T13:18:21.907Z,29.81
2018-07-24T13:20:49.643Z,29.92
2018-07-24T13:23:17.398Z,29.52
2018-07-24T13:25:45.071Z,29.43
2018-07-24T13:28:12.739Z,29.68
2018-07-24T13:30:40.484Z,29.62
2018-07-24T13:33:08.218Z,29.41
2018-07-24T13:35:35.924Z,29.57
2018-07-24T13:38:03.598Z,29.33
2018-07-24T13:40:31.306Z,29.36
2018-07-24T13:42:59.062Z,29.49
2018-07-24T13:45:26.794Z,29.62
2018-07-24T13:47:54.529Z,29.57
2018-07-24T13:50:22.288Z,29.63
2018-07-24T13:52:50.018Z,29.71
2018-07-24T13:55:17.723Z,29.79
2018-07-24T13:57:45.401Z,29.88
2018-07-24T14:00:13.133Z,29.70
2018-07-24T14:02:40.878Z,29.53
2018-07-24T14:05:08.584Z,29.33
2018-07-24T14:07:36.302Z,29.55
2018-07-24T14:10:04.311Z,29.61
2018-07-24T14:12:32.599Z,29.75
2018-07-24T14:15:00.328Z,29.86
2018-07-24T14:17:28.034Z,29.91
2018-07-24T14:19:55.714Z,29.81
2018-07-24T14:22:23.499Z,29.68
2018-07-24T14:24:51.217Z,29.49
2018-07-24T14:27:18.918Z,29.30
2018-07-24T14:29:46.607Z,29.53
2018-07-24T14:32:14.307Z,29.30
2018-07-24T14:34:42.025Z,29.38
2018-07-24T14:37:10.281Z,29.29
2018-07-24T14:39:38.006Z,29.28
2018-07-24T14:42:05.722Z,29.30
2018-07-24T14:44:33.552Z,29.30
2018-07-24T14:47:01.515Z,29.43
2018-07-24T14:49:29.208Z,29.35
2018-07-24T14:51:56.923Z,29.23
2018-07-24T14:54:24.680Z,29.28
2018-07-24T14:56:52.444Z,29.27
2018-07-24T14:59:20.149Z,29.12
2018-07-24T15:01:47.878Z,29.16
2018-07-24T15:04:15.612Z,29.01
2018-07-24T15:06:43.426Z,28.99
2018-07-24T15:09:12.400Z,28.90
2018-07-24T15:11:40.447Z,29.08
2018-07-24T15:14:08.222Z,28.93
2018-07-24T15:16:36.249Z,28.81
2018-07-24T15:19:04.104Z,28.81
2018-07-24T15:21:33.709Z,28.97
2018-07-24T15:24:01.454Z,29.07
2018-07-24T15:26:29.147Z,28.99
2018-07-24T15:28:56.887Z,28.81
2018-07-24T15:31:24.601Z,29.00
2018-07-24T15:33:52.306Z,29.17
2018-07-24T15:36:20.026Z,29.10
2018-07-24T15:38:47.698Z,29.14
2018-07-24T15:41:15.494Z,29.00
2018-07-24T15:43:43.126Z,29.09
2018-07-24T15:46:10.810Z,29.12
2018-07-24T15:48:38.503Z,29.21
2018-07-24T15:51:06.341Z,29.18
2018-07-24T15:53:34.058Z,29.24
2018-07-24T15:56:01.744Z,29.18
2018-07-24T15:58:29.441Z,29.11
2018-07-24T16:00:57.186Z,29.29
2018-07-24T16:03:24.914Z,29.33
2018-07-24T16:05:52.574Z,29.08
2018-07-24T16:08:20.283Z,28.95
2018-07-24T16:10:47.998Z,29.03
2018-07-24T16:13:15.718Z,28.88
2018-07-24T16:15:43.472Z,28.86
2018-07-24T16:18:11.826Z,28.72
2018-07-24T16:20:39.538Z,28.66
2018-07-24T16:23:07.231Z,28.65
2018-07-24T16:25:34.923Z,28.72
2018-07-24T16:28:02.690Z,28.50
2018-07-24T16:30:31.311Z,28.54
2018-07-24T16:32:59.113Z,28.60
2018-07-24T16:35:26.790Z,28.63
2018-07-24T16:37:54.496Z,28.56
2018-07-24T16:40:22.214Z,28.43
2018-07-24T16:42:49.878Z,28.41
2018-07-24T16:45:17.600Z,28.39
2018-07-24T16:47:45.318Z,28.21
2018-07-24T16:50:12.979Z,28.15
2018-07-24T16:52:40.717Z,28.27
2018-07-24T16:55:08.143Z,28.12
2018-07-24T16:57:35.836Z,28.24
2018-07-24T17:00:04.163Z,28.38
2018-07-24T17:02:31.908Z,28.27
2018-07-24T17:04:59.851Z,28.26
2018-07-24T17:07:27.601Z,28.18
2018-07-24T17:09:55.965Z,28.20
2018-07-24T17:12:23.715Z,28.12
2018-07-24T17:14:51.607Z,27.86
2018-07-24T17:17:19.430Z,27.95
2018-07-24T17:19:47.181Z,27.95
2018-07-24T17:22:14.845Z,27.84
2018-07-24T17:24:42.693Z,27.72
2018-07-24T17:27:10.350Z,27.73
2018-07-24T17:29:38.083Z,27.84
2018-07-24T17:32:06.686Z,27.77
2018-07-24T17:34:34.403Z,27.80
2018-07-24T17:37:02.167Z,27.73
2018-07-24T17:39:29.914Z,27.71
2018-07-24T17:41:57.660Z,27.82
2018-07-24T17:44:25.354Z,27.87
2018-07-24T17:46:53.141Z,27.68
2018-07-24T17:49:20.909Z,27.69
2018-07-24T17:51:48.547Z,27.86
2018-07-24T17:54:16.345Z,27.74
2018-07-24T17:56:44.026Z,27.58
2018-07-24T17:59:11.758Z,27.49
2018-07-24T18:01:39.487Z,27.40
2018-07-24T18:04:07.223Z,27.38
2018-07-24T18:06:34.897Z,27.40
2018-07-24T18:09:02.920Z,27.30
2018-07-24T18:11:30.658Z,27.25
2018-07-24T18:13:58.379Z,27.19
2018-07-24T18:16:26.084Z,27.27
2018-07-24T18:18:53.805Z,27.11
2018-07-24T18:21:21.562Z,26.93
2018-07-24T18:23:49.361Z,27.14
2018-07-24T18:26:17.118Z,27.00
2018-07-24T18:28:44.865Z,26.82
2018-07-24T18:31:12.600Z,26.94
2018-07-24T18:33:40.336Z,26.97
2018-07-24T18:36:08.108Z,26.95
2018-07-24T18:38:35.834Z,26.75
2018-07-24T18:41:03.569Z,26.81
2018-07-24T18:43:31.284Z,26.64
2018-07-24T18:45:59.171Z,26.62
2018-07-24T18:48:26.913Z,26.54
2018-07-24T18:50:54.643Z,26.33
2018-07-24T18:53:22.517Z,26.21
2018-07-24T18:55:50.179Z,26.20
2018-07-24T18:58:17.908Z,26.38
2018-07-24T19:00:45.643Z,26.06
2018-07-24T19:03:13.409Z,25.97
2018-07-24T19:05:41.137Z,25.99
2018-07-24T19:08:08.838Z,26.06
2018-07-24T19:10:36.798Z,25.87
2018-07-24T19:13:04.518Z,25.85
2018-07-24T19:15:32.273Z,25.52
2018-07-24T19:18:00.047Z,25.41
2018-07-24T19:20:27.828Z,25.47
2018-07-24T19:22:55.642Z,25.35
2018-07-24T19:25:23.394Z,24.91
2018-07-24T19:27:51.156Z,24.81
2018-07-24T19:30:18.842Z,24.81
2018-07-24T19:32:46.613Z,24.73
2018-07-24T19:35:14.390Z,24.67
2018-07-24T19:37:42.276Z,24.46
2018-07-24T19:40:10.012Z,24.31
2018-07-24T19:42:37.749Z,24.38
2018-07-24T19:45:05.548Z,24.39
2018-07-24T19:47:33.263Z,24.17
2018-07-24T19:50:00.999Z,24.17
2018-07-24T19:52:28.716Z,24.12
2018-07-24T19:54:56.461Z,23.98
2018-07-24T19:57:24.249Z,23.87
2018-07-24T19:59:51.967Z,23.85
2018-07-24T20:02:19.686Z,23.71
2018-07-24T20:04:47.412Z,23.70
2018-07-24T20:07:15.200Z,23.61
2018-07-24T20:09:43.035Z,23.79
2018-07-24T20:12:10.746Z,23.69
2018-07-24T20:14:38.442Z,23.73
2018-07-24T20:17:06.126Z,23.65
2018-07-24T20:19:33.852Z,23.35
2018-07-24T20:22:01.596Z,23.17
2018-07-24T20:24:29.383Z,23.10
2018-07-24T20:26:57.091Z,22.89
2018-07-24T20:29:24.838Z,22.85
2018-07-24T20:31:52.572Z,22.84
2018-07-24T20:34:20.327Z,22.89
2018-07-24T20:36:48.304Z,22.97
2018-07-24T20:39:16.031Z,23.10
2018-07-24T20:41:43.802Z,23.06
2018-07-24T20:44:11.517Z,22.86
2018-07-24T20:46:39.266Z,22.70
2018-07-24T20:49:07.051Z,22.56
2018-07-24T20:51:34.863Z,22.63
2018-07-24T20:54:02.676Z,22.55
2018-07-24T20:56:30.418Z,22.62
2018-07-24T20:58:58.109Z,22.52
2018-07-24T21:01:25.849Z,22.57
2018-07-24T21:03:53.535Z,22.54
2018-07-24T21:06:21.255Z,22.63
2018-07-24T21:08:48.952Z,22.53
2018-07-24T21:11:16.745Z,22.47
2018-07-24T21:13:44.452Z,22.40
2018-07-24T21:16:12.278Z,22.55
2018-07-24T21:18:40.067Z,22.47
2018-07-24T21:21:07.767Z,22.47
2018-07-24T21:23:35.542Z,22.45
2018-07-24T21:26:03.369Z,22.41
2018-07-24T21:28:31.075Z,22.45
2018-07-24T21:30:58.807Z,22.49
2018-07-24T21:33:26.517Z,22.50
2018-07-24T21:35:54.220Z,22.49
2018-07-24T21:38:21.927Z,22.54
2018-07-24T21:40:49.611Z,22.54
2018-07-24T21:43:17.312Z,22.41
2018-07-24T21:45:45.155Z,22.53
2018-07-24T21:48:12.892Z,22.47
2018-07-24T21:50:40.612Z,22.44
2018-07-24T21:53:08.350Z,22.47
2018-07-24T21:55:36.062Z,22.37
2018-07-24T21:58:03.831Z,22.39
2018-07-24T22:00:36.318Z,22.33
2018-07-24T22:03:04.999Z,22.39
2018-07-24T22:05:33.151Z,22.33
2018-07-24T22:08:00.838Z,22.34
2018-07-24T22:10:28.526Z,22.34
2018-07-24T22:12:57.112Z,22.28
2018-07-24T22:15:25.952Z,22.34
2018-07-24T22:17:54.020Z,22.29
2018-07-24T22:20:21.995Z,22.31
2018-07-24T22:22:50.150Z,22.31
2018-07-24T22:25:17.839Z,22.26
2018-07-24T22:27:45.589Z,22.23
2018-07-24T22:30:13.307Z,22.24
2018-07-24T22:32:41.042Z,22.10
2018-07-24T22:35:10.525Z,22.02
2018-07-24T22:37:38.654Z,22.09
2018-07-24T22:40:07.075Z,22.04
2018-07-24T22:42:34.755Z,21.96
2018-07-24T22:45:02.590Z,21.89
2018-07-24T22:47:30.297Z,21.97
2018-07-24T22:49:58.021Z,22.01
2018-07-24T22:52:25.795Z,21.94
2018-07-24T22:54:53.465Z,21.78
2018-07-24T22:57:21.143Z,21.65
2018-07-24T22:59:48.942Z,21.78
2018-07-24T23:02:16.682Z,21.78
2018-07-24T23:04:44.411Z,21.70
2018-07-24T23:07:12.118Z,21.74
2018-07-24T23:09:39.812Z,21.67
2018-07-24T23:12:07.604Z,21.62
2018-07-24T23:14:35.257Z,21.69
2018-07-24T23:17:03.038Z,21.61
2018-07-24T23:19:30.679Z,21.50
2018-07-24T23:21:58.442Z,21.41
2018-07-24T23:24:26.174Z,21.48
2018-07-24T23:26:53.863Z,21.53
2018-07-24T23:29:21.751Z,21.41
2018-07-24T23:31:49.410Z,21.48
2018-07-24T23:34:17.146Z,21.38
2018-07-24T23:36:44.878Z,21.29
2018-07-24T23:39:12.537Z,21.15
2018-07-24T23:41:40.270Z,21.05
2018-07-24T23:44:08.191Z,21.04
2018-07-24T23:46:36.173Z,21.00
2018-07-24T23:49:04.155Z,20.96
2018-07-24T23:51:31.846Z,20.92
2018-07-24T23:53:59.518Z,20.88
2018-07-24T23:56:27.197Z,20.83
2018-07-24T23:58:54.899Z,21.11
